createdAt,value
2022-09-16T00:00:31.927Z,12.19
2022-09-16T00:02:58.846Z,12.16
2022-09-16T00:05:25.446Z,12.15
2022-09-16T00:07:52.418Z,12.12
2022-09-16T00:10:18.946Z,12.10
2022-09-16T00:12:45.647Z,12.07
2022-09-16T00:15:12.384Z,12.03
2022-09-16T00:17:39.281Z,11.99
2022-09-16T00:20:07.315Z,11.98
2022-09-16T00:22:34.147Z,11.95
2022-09-16T00:25:00.784Z,11.91
2022-09-16T00:27:27.768Z,11.89
2022-09-16T00:29:54.253Z,11.85
2022-09-16T00:32:20.872Z,11.84
2022-09-16T00:34:47.374Z,11.82
2022-09-16T00:37:13.864Z,11.79
2022-09-16T00:39:40.521Z,11.78
2022-09-16T00:42:07.360Z,11.76
2022-09-16T00:44:56.103Z,11.80
2022-09-16T00:47:40.925Z,11.86
2022-09-16T00:50:20.530Z,11.93
2022-09-16T00:52:48.227Z,11.98
2022-09-16T00:55:19.743Z,12.02
2022-09-16T00:57:47.837Z,12.03
2022-09-16T01:00:14.812Z,11.99
2022-09-16T01:02:44.317Z,11.93
2022-09-16T01:05:15.482Z,11.88
2022-09-16T01:07:44.951Z,11.83
2022-09-16T01:10:14.014Z,11.79
2022-09-16T01:12:44.419Z,11.75
2022-09-16T01:15:12.280Z,11.73
2022-09-16T01:17:50.879Z,11.74
2022-09-16T01:20:33.458Z,11.75
2022-09-16T01:23:34.624Z,11.79
2022-09-16T01:26:16.011Z,11.82
2022-09-16T01:29:20.381Z,11.84
2022-09-16T01:31:56.558Z,11.88
2022-09-16T01:34:35.284Z,11.89
2022-09-16T01:37:19.840Z,11.89
2022-09-16T01:39:58.451Z,11.91
2022-09-16T01:43:00.538Z,11.94
2022-09-16T01:45:37.967Z,11.95
2022-09-16T01:48:17.312Z,11.98
2022-09-16T01:50:46.347Z,11.98
2022-09-16T01:53:24.708Z,12.00
2022-09-16T01:56:00.473Z,12.00
2022-09-16T01:58:37.412Z,12.01
2022-09-16T02:01:11.927Z,12.01
2022-09-16T02:03:47.292Z,11.99
2022-09-16T02:06:19.488Z,11.99
2022-09-16T02:08:58.843Z,12.03
2022-09-16T02:11:26.013Z,12.07
2022-09-16T02:14:28.889Z,12.08
2022-09-16T02:17:01.262Z,12.09
2022-09-16T02:19:43.092Z,12.07
2022-09-16T02:22:16.495Z,12.06
2022-09-16T02:24:47.122Z,12.08
2022-09-16T02:27:18.095Z,12.09
2022-09-16T02:29:50.438Z,12.10
2022-09-16T02:32:19.117Z,12.09
2022-09-16T02:34:50.281Z,12.04
2022-09-16T02:37:39.257Z,11.96
2022-09-16T02:40:11.009Z,11.90
2022-09-16T02:42:37.570Z,11.88
2022-09-16T02:45:05.338Z,11.85
2022-09-16T02:47:46.970Z,11.85
2022-09-16T02:50:21.976Z,11.84
2022-09-16T02:52:48.352Z,11.84
2022-09-16T02:55:20.917Z,11.80
2022-09-16T02:57:47.423Z,11.74
2022-09-16T03:00:14.044Z,11.71
2022-09-16T03:02:41.113Z,11.65
2022-09-16T03:05:09.569Z,11.60
2022-09-16T03:07:38.794Z,11.57
2022-09-16T03:10:05.754Z,11.56
2022-09-16T03:12:53.369Z,11.54
2022-09-16T03:15:38.697Z,11.49
2022-09-16T03:18:12.664Z,11.47
2022-09-16T03:21:11.441Z,11.46
2022-09-16T03:23:54.761Z,11.46
2022-09-16T03:26:33.064Z,11.43
2022-09-16T03:29:06.621Z,11.41
2022-09-16T03:31:48.224Z,11.38
2022-09-16T03:34:32.673Z,11.35
2022-09-16T03:37:03.749Z,11.34
2022-09-16T03:39:32.183Z,11.31
2022-09-16T03:42:11.479Z,11.28
2022-09-16T03:44:40.362Z,11.27
2022-09-16T03:47:08.341Z,11.25
2022-09-16T03:49:35.649Z,11.23
2022-09-16T03:52:02.466Z,11.23
2022-09-16T03:54:28.912Z,11.25
2022-09-16T03:56:55.382Z,11.24
2022-09-16T03:59:22.096Z,11.26
2022-09-16T04:01:49.078Z,11.27
2022-09-16T04:04:15.571Z,11.27
2022-09-16T04:06:42.074Z,11.28
2022-09-16T04:09:12.427Z,11.29
2022-09-16T04:11:40.319Z,11.28
2022-09-16T04:14:07.443Z,11.29
2022-09-16T04:16:34.714Z,11.31
2022-09-16T04:19:01.232Z,11.35
2022-09-16T04:21:27.864Z,11.37
2022-09-16T04:23:54.642Z,11.34
2022-09-16T04:26:21.417Z,11.32
2022-09-16T04:28:48.046Z,11.30
2022-09-16T04:31:15.954Z,11.25
2022-09-16T04:33:43.119Z,11.22
2022-09-16T04:36:12.282Z,11.21
2022-09-16T04:38:40.514Z,11.18
2022-09-16T04:41:16.704Z,11.17
2022-09-16T04:43:43.372Z,11.18
2022-09-16T04:46:10.838Z,11.19
2022-09-16T04:48:38.393Z,11.20
2022-09-16T04:51:12.636Z,11.23
2022-09-16T04:53:40.705Z,11.28
2022-09-16T04:56:09.896Z,11.34
2022-09-16T04:58:36.799Z,11.41
2022-09-16T05:01:08.126Z,11.47
2022-09-16T05:03:34.733Z,11.53
2022-09-16T05:06:10.019Z,11.58
2022-09-16T05:08:37.059Z,11.62
2022-09-16T05:11:06.430Z,11.65
2022-09-16T05:13:32.915Z,11.69
2022-09-16T05:16:10.330Z,11.73
2022-09-16T05:18:38.579Z,11.77
2022-09-16T05:21:08.443Z,11.82
2022-09-16T05:23:35.405Z,11.85
2022-09-16T05:26:11.016Z,11.91
2022-09-16T05:28:38.150Z,11.96
2022-09-16T05:31:31.760Z,12.01
2022-09-16T05:34:06.639Z,12.05
2022-09-16T05:36:35.299Z,12.08
2022-09-16T05:41:52.254Z,12.18
2022-09-16T05:44:19.075Z,12.21
2022-09-16T05:46:45.834Z,12.25
2022-09-16T05:49:12.412Z,12.28
2022-09-16T05:51:41.398Z,12.31
2022-09-16T05:54:08.578Z,12.32
2022-09-16T05:56:35.185Z,12.35
2022-09-16T05:59:01.941Z,12.39
2022-09-16T06:01:34.308Z,12.42
2022-09-16T06:04:03.356Z,12.47
2022-09-16T06:06:31.009Z,12.48
2022-09-16T06:09:00.282Z,12.48
2022-09-16T06:11:28.377Z,12.50
2022-09-16T06:13:58.094Z,12.53
2022-09-16T06:16:28.568Z,12.63
2022-09-16T06:18:57.358Z,12.73
2022-09-16T06:21:24.064Z,12.82
2022-09-16T06:23:50.890Z,12.86
2022-09-16T06:26:19.924Z,12.90
2022-09-16T06:28:47.769Z,12.96
2022-09-16T06:31:25.867Z,12.96
2022-09-16T06:33:53.387Z,12.94
2022-09-16T06:36:22.777Z,12.95
2022-09-16T06:38:50.075Z,13.00
2022-09-16T06:41:18.660Z,13.03
2022-09-16T06:43:45.431Z,13.04
2022-09-16T06:46:16.087Z,13.00
2022-09-16T06:48:45.174Z,13.01
2022-09-16T06:51:16.709Z,13.06
2022-09-16T06:53:44.185Z,13.15
2022-09-16T06:56:13.573Z,13.18
2022-09-16T06:58:42.566Z,13.22
2022-09-16T07:01:12.311Z,13.30
2022-09-16T07:03:43.570Z,13.38
2022-09-16T07:06:11.632Z,13.33
2022-09-16T07:08:38.951Z,13.27
2022-09-16T07:11:14.475Z,13.24
2022-09-16T07:13:42.003Z,13.18
2022-09-16T07:16:14.383Z,13.20
2022-09-16T07:18:42.191Z,13.31
2022-09-16T07:21:16.942Z,13.41
2022-09-16T07:23:44.669Z,13.43
2022-09-16T07:26:11.195Z,13.38
2022-09-16T07:28:39.143Z,13.33
2022-09-16T07:31:11.664Z,13.31
2022-09-16T07:33:44.277Z,13.32
2022-09-16T07:36:13.469Z,13.36
2022-09-16T07:38:39.908Z,13.43
2022-09-16T07:41:12.428Z,13.54
2022-09-16T07:43:40.318Z,13.59
2022-09-16T07:46:08.318Z,13.57
2022-09-16T07:48:35.415Z,13.53
2022-09-16T07:51:05.949Z,13.56
2022-09-16T07:53:33.325Z,13.57
2022-09-16T07:56:14.928Z,13.57
2022-09-16T07:58:41.762Z,13.63
2022-09-16T08:01:09.081Z,13.66
2022-09-16T08:03:37.125Z,13.72
2022-09-16T08:06:06.831Z,13.80
2022-09-16T08:08:34.369Z,13.90
2022-09-16T08:11:02.083Z,13.96
2022-09-16T08:13:31.265Z,14.06
2022-09-16T08:16:06.613Z,14.10
2022-09-16T08:18:33.966Z,14.16
2022-09-16T08:21:08.106Z,14.21
2022-09-16T08:23:36.014Z,14.22
2022-09-16T08:26:02.639Z,14.26
2022-09-16T08:28:39.943Z,14.43
2022-09-16T08:31:17.975Z,14.47
2022-09-16T08:33:45.017Z,14.52
2022-09-16T08:36:17.689Z,14.70
2022-09-16T08:38:45.024Z,14.96
2022-09-16T08:41:28.973Z,15.13
2022-09-16T08:44:11.711Z,15.21
2022-09-16T08:46:57.307Z,15.37
2022-09-16T08:49:43.963Z,15.36
2022-09-16T08:52:30.121Z,15.33
2022-09-16T08:55:00.915Z,15.32
2022-09-16T08:57:30.478Z,15.40
2022-09-16T09:00:23.534Z,15.33
2022-09-16T09:02:58.956Z,15.44
2022-09-16T09:05:45.325Z,15.51
2022-09-16T09:08:43.939Z,15.61
2022-09-16T09:11:32.908Z,15.72
2022-09-16T09:14:23.982Z,15.82
2022-09-16T09:17:03.398Z,15.72
2022-09-16T09:20:01.130Z,15.58
2022-09-16T09:22:58.082Z,15.45
2022-09-16T09:25:33.817Z,15.45
2022-09-16T09:28:23.301Z,15.58
2022-09-16T09:30:54.932Z,15.70
2022-09-16T09:33:47.187Z,15.58
2022-09-16T09:36:19.699Z,15.57
2022-09-16T09:38:49.192Z,15.54
2022-09-16T09:41:34.205Z,15.58
2022-09-16T09:44:37.820Z,15.74
2022-09-16T09:47:11.325Z,15.95
2022-09-16T09:49:44.043Z,15.93
2022-09-16T09:52:25.098Z,16.01
2022-09-16T09:54:52.239Z,16.09
2022-09-16T09:57:37.776Z,16.01
2022-09-16T10:00:10.328Z,15.94
2022-09-16T10:02:44.973Z,15.81
2022-09-16T10:05:26.889Z,15.78
2022-09-16T10:07:58.382Z,16.04
2022-09-16T10:10:27.814Z,16.16
2022-09-16T10:12:54.597Z,16.13
2022-09-16T10:15:28.052Z,16.06
2022-09-16T10:17:55.487Z,16.02
2022-09-16T10:20:29.429Z,15.99
2022-09-16T10:23:11.618Z,16.02
2022-09-16T10:25:38.650Z,15.95
2022-09-16T10:28:17.894Z,15.87
2022-09-16T10:30:51.332Z,15.88
2022-09-16T10:33:25.887Z,16.05
2022-09-16T10:36:03.160Z,16.41
2022-09-16T10:38:43.776Z,16.68
2022-09-16T10:41:34.010Z,16.79
2022-09-16T10:44:06.490Z,16.80
2022-09-16T10:46:34.139Z,16.83
2022-09-16T10:49:09.412Z,16.88
2022-09-16T10:51:36.197Z,17.11
2022-09-16T10:54:06.108Z,17.45
2022-09-16T10:56:46.216Z,17.67
2022-09-16T10:59:14.116Z,17.70
2022-09-16T11:01:55.793Z,17.72
2022-09-16T11:04:37.759Z,17.74
2022-09-16T11:07:10.245Z,17.59
2022-09-16T11:10:01.142Z,17.43
2022-09-16T11:13:08.335Z,17.30
2022-09-16T11:15:40.706Z,17.17
2022-09-16T11:18:16.318Z,17.23
2022-09-16T11:20:52.672Z,17.21
2022-09-16T11:23:45.081Z,17.14
2022-09-16T11:26:17.425Z,17.01
2022-09-16T11:29:11.354Z,16.92
2022-09-16T11:31:47.300Z,16.84
2022-09-16T11:34:34.320Z,16.90
2022-09-16T11:37:19.453Z,17.06
2022-09-16T11:40:07.791Z,17.20
2022-09-16T11:42:40.121Z,17.12
2022-09-16T11:45:17.253Z,17.12
2022-09-16T11:47:55.841Z,16.90
2022-09-16T11:50:48.024Z,16.53
2022-09-16T11:53:34.641Z,16.20
2022-09-16T11:56:12.055Z,15.95
2022-09-16T11:58:46.238Z,15.94
2022-09-16T12:01:31.958Z,16.16
2022-09-16T12:04:24.780Z,16.43
2022-09-16T12:07:18.842Z,16.56
2022-09-16T12:10:01.990Z,16.84
2022-09-16T12:12:37.264Z,17.11
2022-09-16T12:15:18.739Z,17.38
2022-09-16T12:18:11.947Z,17.49
2022-09-16T12:20:43.683Z,17.54
2022-09-16T12:23:26.533Z,17.62
2022-09-16T12:26:14.125Z,17.73
2022-09-16T12:29:02.144Z,17.84
2022-09-16T12:31:45.896Z,17.80
2022-09-16T12:34:22.656Z,17.74
2022-09-16T12:36:57.973Z,17.39
2022-09-16T12:39:24.560Z,16.56
2022-09-16T12:42:09.724Z,15.84
2022-09-16T12:45:05.716Z,15.46
2022-09-16T12:47:38.080Z,15.07
2022-09-16T12:50:23.287Z,15.14
2022-09-16T12:53:19.886Z,15.12
2022-09-16T12:56:27.090Z,14.57
2022-09-16T12:59:13.663Z,14.07
2022-09-16T13:01:45.157Z,13.84
2022-09-16T13:04:21.060Z,13.77
2022-09-16T13:06:55.923Z,13.92
2022-09-16T13:09:41.567Z,14.17
2022-09-16T13:15:22.158Z,14.66
2022-09-16T13:17:52.739Z,14.90
2022-09-16T13:20:24.693Z,15.20
2022-09-16T13:23:02.674Z,15.62
2022-09-16T13:25:59.040Z,15.90
2022-09-16T13:28:39.243Z,15.97
2022-09-16T13:31:15.187Z,15.91
2022-09-16T13:34:01.574Z,15.84
2022-09-16T13:36:29.540Z,15.30
2022-09-16T13:38:58.972Z,14.67
2022-09-16T13:41:34.596Z,14.13
2022-09-16T13:44:02.177Z,13.85
2022-09-16T13:46:35.378Z,13.52
2022-09-16T13:49:11.018Z,13.24
2022-09-16T13:51:48.092Z,13.12
2022-09-16T13:54:27.949Z,13.01
2022-09-16T13:57:12.897Z,13.02
2022-09-16T14:00:02.498Z,13.01
2022-09-16T14:02:55.441Z,13.02
2022-09-16T14:05:52.804Z,13.08
2022-09-16T14:08:45.530Z,13.28
2022-09-16T14:11:17.172Z,13.36
2022-09-16T14:14:04.764Z,13.59
2022-09-16T14:16:34.312Z,13.79
2022-09-16T14:19:05.830Z,13.94
2022-09-16T14:21:32.871Z,14.07
2022-09-16T14:24:16.248Z,14.27
2022-09-16T14:26:57.768Z,14.50
2022-09-16T14:29:25.619Z,14.66
2022-09-16T14:31:55.461Z,14.72
2022-09-16T14:34:28.577Z,14.73
2022-09-16T14:36:55.274Z,14.70
2022-09-16T14:39:25.379Z,14.74
2022-09-16T14:41:58.597Z,14.84
2022-09-16T14:44:34.883Z,14.96
2022-09-16T14:47:10.522Z,15.06
2022-09-16T14:49:49.845Z,15.16
2022-09-16T14:52:22.407Z,15.22
2022-09-16T14:54:50.925Z,15.29
2022-09-16T14:57:24.370Z,15.40
2022-09-16T14:59:54.291Z,15.47
2022-09-16T15:02:27.185Z,15.53
2022-09-16T15:04:58.108Z,15.57
2022-09-16T15:07:36.093Z,15.61
2022-09-16T15:10:22.494Z,15.60
2022-09-16T15:12:56.675Z,15.65
2022-09-16T15:15:29.686Z,15.65
2022-09-16T15:18:15.528Z,15.67
2022-09-16T15:20:42.728Z,15.70
2022-09-16T15:23:22.182Z,15.67
2022-09-16T15:25:56.223Z,15.70
2022-09-16T15:28:22.749Z,15.66
2022-09-16T15:30:53.908Z,15.62
2022-09-16T15:33:25.416Z,15.55
2022-09-16T15:35:52.617Z,15.55
2022-09-16T15:38:23.086Z,15.55
2022-09-16T15:41:01.530Z,15.55
2022-09-16T15:43:29.958Z,15.54
2022-09-16T15:46:09.072Z,15.55
2022-09-16T15:48:44.340Z,15.52
2022-09-16T15:51:20.560Z,15.52
2022-09-16T15:53:49.174Z,15.51
2022-09-16T15:56:25.275Z,15.51
2022-09-16T15:58:58.033Z,15.49
2022-09-16T16:01:30.603Z,15.44
2022-09-16T16:03:59.418Z,15.38
2022-09-16T16:06:52.164Z,15.28
2022-09-16T16:09:27.857Z,15.24
2022-09-16T16:11:57.768Z,15.18
2022-09-16T16:14:32.419Z,15.13
2022-09-16T16:17:13.143Z,15.05
2022-09-16T16:19:42.138Z,14.97
2022-09-16T16:22:09.661Z,14.88
2022-09-16T16:24:37.004Z,14.80
2022-09-16T16:27:04.674Z,14.72
2022-09-16T16:29:31.307Z,14.65
2022-09-16T16:32:01.644Z,14.59
2022-09-16T16:34:31.093Z,14.54
2022-09-16T16:36:57.653Z,14.51
2022-09-16T16:39:24.530Z,14.49
2022-09-16T16:41:54.148Z,14.46
2022-09-16T16:44:22.800Z,14.42
2022-09-16T16:46:51.399Z,14.39
2022-09-16T16:49:18.496Z,14.36
2022-09-16T16:51:45.323Z,14.35
2022-09-16T16:54:13.273Z,14.34
2022-09-16T16:56:40.236Z,14.31
2022-09-16T16:59:08.373Z,14.27
2022-09-16T17:01:35.808Z,14.25
2022-09-16T17:04:05.307Z,14.22
2022-09-16T17:06:32.864Z,14.21
2022-09-16T17:08:59.454Z,14.19
2022-09-16T17:11:26.599Z,14.18
2022-09-16T17:13:58.641Z,14.14
2022-09-16T17:16:25.979Z,14.14
2022-09-16T17:18:52.889Z,14.13
2022-09-16T17:21:22.660Z,14.12
2022-09-16T17:23:49.154Z,14.11
2022-09-16T17:26:16.177Z,14.09
2022-09-16T17:28:44.758Z,14.07
2022-09-16T17:31:14.825Z,14.04
2022-09-16T17:33:41.769Z,14.01
2022-09-16T17:36:09.590Z,14.01
2022-09-16T17:38:36.358Z,14.00
2022-09-16T17:41:05.625Z,13.97
2022-09-16T17:43:32.818Z,13.96
2022-09-16T17:46:06.942Z,13.94
2022-09-16T17:48:34.310Z,13.93
2022-09-16T17:51:00.848Z,13.90
2022-09-16T17:53:27.310Z,13.88
2022-09-16T17:56:11.323Z,13.84
2022-09-16T17:58:39.520Z,13.80
2022-09-16T18:01:12.190Z,13.76
2022-09-16T18:03:40.891Z,13.72
2022-09-16T18:06:20.850Z,13.70
2022-09-16T18:08:48.365Z,13.70
2022-09-16T18:11:16.735Z,13.68
2022-09-16T18:13:46.306Z,13.67
2022-09-16T18:16:15.581Z,13.68
2022-09-16T18:18:43.816Z,13.68
2022-09-16T18:21:14.425Z,13.66
2022-09-16T18:23:42.000Z,13.67
2022-09-16T18:26:11.265Z,13.68
2022-09-16T18:29:05.391Z,13.69
2022-09-16T18:31:25.929Z,13.69
2022-09-16T18:33:53.878Z,13.59
2022-09-16T18:36:25.428Z,13.44
2022-09-16T18:38:53.894Z,13.30
2022-09-16T18:41:22.877Z,13.20
2022-09-16T18:43:55.092Z,13.12
2022-09-16T18:46:26.764Z,13.04
2022-09-16T18:48:55.300Z,12.99
2022-09-16T18:51:31.101Z,12.97
2022-09-16T18:54:00.747Z,12.98
2022-09-16T18:56:29.537Z,12.96
2022-09-16T18:59:26.134Z,12.93
2022-09-16T19:01:54.147Z,12.92
2022-09-16T19:04:23.608Z,12.93
2022-09-16T19:06:52.660Z,12.95
2022-09-16T19:09:21.491Z,12.94
2022-09-16T19:11:49.369Z,12.93
2022-09-16T19:14:16.153Z,12.85
2022-09-16T19:16:44.670Z,12.82
2022-09-16T19:19:14.412Z,12.82
2022-09-16T19:21:42.391Z,12.84
2022-09-16T19:24:14.123Z,12.89
2022-09-16T19:26:41.831Z,12.91
2022-09-16T19:29:08.755Z,12.91
2022-09-16T19:31:37.642Z,12.91
2022-09-16T19:34:05.871Z,12.87
2022-09-16T19:36:33.965Z,12.84
2022-09-16T19:39:01.211Z,12.83
2022-09-16T19:41:30.568Z,12.82
2022-09-16T19:43:59.557Z,12.84
2022-09-16T19:46:27.458Z,12.84
2022-09-16T19:48:55.326Z,12.84
2022-09-16T19:51:23.931Z,12.84
2022-09-16T19:53:52.519Z,12.84
2022-09-16T19:56:24.952Z,12.83
2022-09-16T19:58:52.935Z,12.81
2022-09-16T20:01:25.412Z,12.78
2022-09-16T20:03:52.941Z,12.76
2022-09-16T20:06:21.882Z,12.72
2022-09-16T20:09:01.085Z,12.69
2022-09-16T20:11:31.469Z,12.67
2022-09-16T20:14:04.198Z,12.64
2022-09-16T20:16:37.611Z,12.62
2022-09-16T20:19:06.497Z,12.60
2022-09-16T20:21:35.257Z,12.59
2022-09-16T20:24:05.697Z,12.60
2022-09-16T20:26:32.870Z,12.60
2022-09-16T20:29:00.408Z,12.63
2022-09-16T20:31:33.080Z,12.63
2022-09-16T20:34:00.383Z,12.64
2022-09-16T20:36:31.939Z,12.62
2022-09-16T20:38:59.820Z,12.62
2022-09-16T20:41:29.358Z,12.61
2022-09-16T20:43:56.501Z,12.60
2022-09-16T20:46:25.801Z,12.60
2022-09-16T20:48:54.533Z,12.58
2022-09-16T20:51:23.265Z,12.55
2022-09-16T20:53:55.044Z,12.55
2022-09-16T20:56:22.311Z,12.57
2022-09-16T20:58:48.956Z,12.57
2022-09-16T21:01:18.944Z,12.59
2022-09-16T21:03:45.839Z,12.60
2022-09-16T21:06:15.714Z,12.58
2022-09-16T21:08:43.141Z,12.57
2022-09-16T21:11:12.511Z,12.57
2022-09-16T21:13:45.175Z,12.56
2022-09-16T21:16:14.112Z,12.56
2022-09-16T21:18:41.943Z,12.53
2022-09-16T21:21:11.328Z,12.54
2022-09-16T21:23:38.263Z,12.56
2022-09-16T21:26:22.827Z,12.56
2022-09-16T21:28:58.603Z,12.55
2022-09-16T21:31:28.269Z,12.54
2022-09-16T21:33:55.422Z,12.56
2022-09-16T21:36:23.345Z,12.55
2022-09-16T21:38:50.134Z,12.55
2022-09-16T21:41:18.909Z,12.54
2022-09-16T21:43:49.562Z,12.55
2022-09-16T21:46:22.552Z,12.53
2022-09-16T21:48:50.274Z,12.52
2022-09-16T21:51:19.284Z,12.53
2022-09-16T21:53:47.078Z,12.53
2022-09-16T21:56:20.610Z,12.53
2022-09-16T21:58:48.204Z,12.53
2022-09-16T22:01:18.068Z,12.54
2022-09-16T22:03:47.479Z,12.54
2022-09-16T22:06:16.153Z,12.55
2022-09-16T22:08:48.581Z,12.54
2022-09-16T22:11:17.404Z,12.53
2022-09-16T22:13:43.965Z,12.55
2022-09-16T22:16:17.396Z,12.52
2022-09-16T22:18:44.746Z,12.51
2022-09-16T22:21:14.403Z,12.51
2022-09-16T22:23:41.392Z,12.50
2022-09-16T22:26:11.439Z,12.49
2022-09-16T22:28:38.302Z,12.48
2022-09-16T22:31:10.067Z,12.43
2022-09-16T22:33:38.088Z,12.34
2022-09-16T22:36:06.710Z,12.27
2022-09-16T22:38:33.388Z,12.23
2022-09-16T22:41:08.436Z,12.20
2022-09-16T22:43:40.147Z,12.15
2022-09-16T22:46:09.532Z,12.11
2022-09-16T22:48:36.718Z,12.12
2022-09-16T22:51:04.258Z,12.14
2022-09-16T22:53:31.818Z,12.12
2022-09-16T22:56:04.760Z,12.14
2022-09-16T22:58:32.003Z,12.10
2022-09-16T23:01:09.774Z,12.06
2022-09-16T23:03:36.650Z,11.98
2022-09-16T23:06:08.929Z,11.94
2022-09-16T23:08:37.574Z,11.89
2022-09-16T23:11:05.927Z,11.85
2022-09-16T23:13:33.864Z,11.82
2022-09-16T23:16:02.287Z,11.80
2022-09-16T23:18:30.555Z,11.77
2022-09-16T23:21:08.792Z,11.76
2022-09-16T23:23:40.012Z,11.75
2022-09-16T23:26:18.954Z,11.76
2022-09-16T23:28:46.211Z,11.76
2022-09-16T23:31:15.461Z,11.74
2022-09-16T23:33:43.008Z,11.74
2022-09-16T23:36:11.454Z,11.75
2022-09-16T23:38:39.502Z,11.77
2022-09-16T23:41:10.748Z,11.77
2022-09-16T23:43:38.904Z,11.78
2022-09-16T23:46:05.841Z,11.78
2022-09-16T23:48:32.821Z,11.80
2022-09-16T23:50:59.827Z,11.79
2022-09-16T23:53:28.359Z,11.80
2022-09-16T23:55:55.548Z,11.80
2022-09-16T23:58:22.069Z,11.81
